Sterling/Rock Falls, Illinois
Current Conditions -  °F | °C
As of 9:35 PM on Monday 26 Jan 2015 (Local Time) from KSQI Reporting Station
Overcast Overcast  
Wind Chill: -2°   Ceiling: 400
Heat Index: -2°   Visibility: 1mi
Dew Point: -3°   Wind: 0mph
Humidity: 93%   Direction: NA
Pressure: 29.88"   Gusts: NA
Location:  41.73°N, 89.68°W
Report Text: KSQI 270335Z AUTO 00000KT 1SM OVC004 M02/M03 A2988 RMK AO1
Loading
Personal Weather Stations






























Interactive Weather Map New forecast layout! Learn more

10-Day Weather Forecast

Advertisements
Track Severe Weather on mobile